createdAt,value
2022-11-24T00:00:10.385Z,81.17
2022-11-24T00:02:39.142Z,80.85
2022-11-24T00:05:09.413Z,81.05
2022-11-24T00:07:38.200Z,80.99
2022-11-24T00:10:09.621Z,80.90
2022-11-24T00:12:38.291Z,81.09
2022-11-24T00:15:07.957Z,80.94
2022-11-24T00:17:36.833Z,80.69
2022-11-24T00:20:06.707Z,80.49
2022-11-24T00:22:35.285Z,80.67
2022-11-24T00:25:04.098Z,80.78
2022-11-24T00:27:34.258Z,80.74
2022-11-24T00:30:02.970Z,80.85
2022-11-24T00:32:33.021Z,80.85
2022-11-24T00:35:01.710Z,80.87
2022-11-24T00:37:31.633Z,80.99
2022-11-24T00:40:00.544Z,80.86
2022-11-24T00:42:29.151Z,80.95
2022-11-24T00:44:59.132Z,81.09
2022-11-24T00:47:28.877Z,80.95
2022-11-24T00:49:57.539Z,80.83
2022-11-24T00:52:26.190Z,80.66
2022-11-24T00:54:54.959Z,80.68
2022-11-24T00:57:23.609Z,80.82
2022-11-24T00:59:52.246Z,80.88
2022-11-24T01:02:22.341Z,80.96
2022-11-24T01:04:51.189Z,80.79
2022-11-24T01:07:19.836Z,80.81
2022-11-24T01:09:48.414Z,81.03
2022-11-24T01:12:16.984Z,80.91
2022-11-24T01:14:45.616Z,81.09
2022-11-24T01:17:14.261Z,81.15
2022-11-24T01:19:47.219Z,81.08
2022-11-24T01:22:15.892Z,81.02
2022-11-24T01:24:45.785Z,81.02
2022-11-24T01:27:14.373Z,81.17
2022-11-24T01:29:42.985Z,81.23
2022-11-24T01:32:11.759Z,81.08
2022-11-24T01:34:40.462Z,81.25
2022-11-24T01:37:10.641Z,81.03
2022-11-24T01:39:39.237Z,81.08
2022-11-24T01:42:08.994Z,80.96
2022-11-24T01:44:37.669Z,80.89
2022-11-24T01:47:17.913Z,81.12
2022-11-24T01:49:51.388Z,80.90
2022-11-24T01:52:27.227Z,80.93
2022-11-24T01:55:01.937Z,80.85
2022-11-24T01:57:39.241Z,81.02
2022-11-24T02:00:12.667Z,80.89
2022-11-24T02:02:46.575Z,80.78
2022-11-24T02:05:22.602Z,80.57
2022-11-24T02:07:57.055Z,80.73
2022-11-24T02:10:27.194Z,80.81
2022-11-24T02:13:01.374Z,80.77
2022-11-24T02:15:30.927Z,80.94
2022-11-24T02:18:00.821Z,80.78
2022-11-24T02:20:33.847Z,80.68
2022-11-24T02:23:16.768Z,80.68
2022-11-24T02:26:00.562Z,80.73
2022-11-24T02:28:32.621Z,80.78
2022-11-24T02:31:03.141Z,80.95
2022-11-24T02:33:32.320Z,80.83
2022-11-24T02:36:01.027Z,80.90
2022-11-24T02:38:32.441Z,81.05
2022-11-24T02:41:05.222Z,81.02
2022-11-24T02:43:43.642Z,81.05
2022-11-24T02:46:12.454Z,81.12
2022-11-24T02:48:41.243Z,81.19
2022-11-24T02:51:09.948Z,81.09
2022-11-24T02:53:38.798Z,81.07
2022-11-24T02:56:08.860Z,80.88
2022-11-24T02:58:38.904Z,80.94
2022-11-24T03:01:08.120Z,81.07
2022-11-24T03:03:38.462Z,80.88
2022-11-24T03:06:07.543Z,80.75
2022-11-24T03:08:36.203Z,80.89
2022-11-24T03:11:05.251Z,81.05
2022-11-24T03:13:35.427Z,81.05
2022-11-24T03:16:10.211Z,81.08
2022-11-24T03:18:39.134Z,81.13
2022-11-24T03:21:08.195Z,81.18
2022-11-24T03:23:41.692Z,81.33
2022-11-24T03:26:13.407Z,81.21
2022-11-24T03:28:43.764Z,81.14
2022-11-24T03:31:14.563Z,81.21
2022-11-24T03:33:43.655Z,81.23
2022-11-24T03:36:13.917Z,80.95
2022-11-24T03:38:42.539Z,80.93
2022-11-24T03:41:11.477Z,80.90
2022-11-24T03:43:43.719Z,80.96
2022-11-24T03:46:14.790Z,80.81
2022-11-24T03:48:43.466Z,80.83
2022-11-24T03:51:12.823Z,80.87
2022-11-24T03:53:41.542Z,80.95
2022-11-24T03:56:11.675Z,80.82
2022-11-24T03:58:41.770Z,80.67
2022-11-24T04:01:10.483Z,80.57
2022-11-24T04:03:41.177Z,80.57
2022-11-24T04:06:09.904Z,80.50
2022-11-24T04:08:38.540Z,80.40
2022-11-24T04:11:09.675Z,80.33
2022-11-24T04:13:39.955Z,80.33
2022-11-24T04:16:09.601Z,80.08
2022-11-24T04:18:38.284Z,80.09
2022-11-24T04:21:08.416Z,80.45
2022-11-24T04:23:39.303Z,80.37
2022-11-24T04:26:11.824Z,80.26
2022-11-24T04:28:40.877Z,80.66
2022-11-24T04:31:09.610Z,80.62
2022-11-24T04:33:38.292Z,80.70
2022-11-24T04:36:09.095Z,80.51
2022-11-24T04:39:19.760Z,80.40
2022-11-24T04:41:26.531Z,80.34
2022-11-24T04:43:56.003Z,80.37
2022-11-24T04:46:32.586Z,80.36
2022-11-24T04:49:06.194Z,80.17
2022-11-24T04:51:36.257Z,80.29
2022-11-24T04:54:05.008Z,80.43
2022-11-24T04:56:33.790Z,80.70
2022-11-24T04:59:08.018Z,80.53
2022-11-24T05:01:38.300Z,80.54
2022-11-24T05:04:08.305Z,80.62
2022-11-24T05:06:41.060Z,80.51
2022-11-24T05:09:17.074Z,80.40
2022-11-24T05:11:45.845Z,80.37
2022-11-24T05:14:14.482Z,80.44
2022-11-24T05:16:43.256Z,80.40
2022-11-24T05:19:13.035Z,80.38
2022-11-24T05:21:43.184Z,80.52
2022-11-24T05:24:12.320Z,80.57
2022-11-24T05:26:42.163Z,80.40
2022-11-24T05:29:11.083Z,80.36
2022-11-24T05:31:40.469Z,80.15
2022-11-24T05:34:10.409Z,79.73
2022-11-24T05:37:01.673Z,79.82
2022-11-24T05:39:33.467Z,79.77
2022-11-24T05:42:23.359Z,79.54
2022-11-24T05:44:52.306Z,79.77
2022-11-24T05:47:21.941Z,79.60
2022-11-24T05:49:52.880Z,79.36
2022-11-24T05:52:21.851Z,79.55
2022-11-24T05:54:52.371Z,79.51
2022-11-24T05:57:21.301Z,79.62
2022-11-24T05:59:50.350Z,79.83
2022-11-24T06:02:20.092Z,79.80
2022-11-24T06:04:51.242Z,79.84
2022-11-24T06:07:22.337Z,79.66
2022-11-24T06:09:52.778Z,79.81
2022-11-24T06:12:23.024Z,79.77
2022-11-24T06:14:54.502Z,79.50
2022-11-24T06:17:25.659Z,79.55
2022-11-24T06:19:54.869Z,79.40
2022-11-24T06:22:23.985Z,79.49
2022-11-24T06:24:54.594Z,79.67
2022-11-24T06:27:23.754Z,79.96
2022-11-24T06:29:52.952Z,79.82
2022-11-24T06:32:22.466Z,79.83
2022-11-24T06:34:52.634Z,79.79
2022-11-24T06:37:21.652Z,79.91
2022-11-24T06:39:55.754Z,79.91
2022-11-24T06:42:24.537Z,79.73
2022-11-24T06:44:53.276Z,79.63
2022-11-24T06:47:22.192Z,79.24
2022-11-24T06:49:50.827Z,79.02
2022-11-24T06:52:19.633Z,79.09
2022-11-24T06:54:51.998Z,79.32
2022-11-24T06:57:22.548Z,79.46
2022-11-24T06:59:51.356Z,79.41
2022-11-24T07:02:20.316Z,79.31
2022-11-24T07:04:48.984Z,79.38
2022-11-24T07:07:17.692Z,79.38
2022-11-24T07:09:46.428Z,79.16
2022-11-24T07:12:15.144Z,78.80
2022-11-24T07:14:45.653Z,79.04
2022-11-24T07:17:16.436Z,79.20
2022-11-24T07:19:45.131Z,79.06
2022-11-24T07:22:16.584Z,78.90
2022-11-24T07:24:45.467Z,78.87
2022-11-24T07:27:14.220Z,78.86
2022-11-24T07:29:44.319Z,78.74
2022-11-24T07:32:14.265Z,78.33
2022-11-24T07:34:47.169Z,77.93
2022-11-24T07:37:15.914Z,78.26
2022-11-24T07:39:44.594Z,78.28
2022-11-24T07:42:34.165Z,78.49
2022-11-24T07:45:05.792Z,78.56
2022-11-24T07:47:34.466Z,78.23
2022-11-24T07:50:03.234Z,77.94
2022-11-24T07:52:32.003Z,78.01
2022-11-24T07:55:00.716Z,78.08
2022-11-24T07:57:29.839Z,77.83
2022-11-24T07:59:58.796Z,78.02
2022-11-24T08:02:30.757Z,77.59
2022-11-24T08:04:59.399Z,77.66
2022-11-24T08:07:28.202Z,77.89
2022-11-24T08:09:57.019Z,78.01
2022-11-24T08:12:26.380Z,77.70
2022-11-24T08:14:54.992Z,77.56
2022-11-24T08:17:23.677Z,77.04
2022-11-24T08:19:53.931Z,76.67
2022-11-24T08:22:23.862Z,76.78
2022-11-24T08:24:52.836Z,76.92
2022-11-24T08:27:21.931Z,77.25
2022-11-24T08:29:50.573Z,77.06
2022-11-24T08:32:22.463Z,77.02
2022-11-24T08:35:08.558Z,77.36
2022-11-24T08:37:43.300Z,77.33
2022-11-24T08:40:14.039Z,77.04
2022-11-24T08:42:43.196Z,76.62
2022-11-24T08:45:21.091Z,76.96
2022-11-24T08:47:55.895Z,77.11
2022-11-24T08:50:27.297Z,77.10
2022-11-24T08:52:56.235Z,76.53
2022-11-24T08:55:24.847Z,76.31
2022-11-24T08:57:53.480Z,75.88
2022-11-24T09:00:23.853Z,75.74
2022-11-24T09:02:57.868Z,76.08
2022-11-24T09:08:16.699Z,76.22
2022-11-24T09:10:46.866Z,76.46
2022-11-24T09:13:15.569Z,76.35
2022-11-24T09:15:44.426Z,76.23
2022-11-24T09:18:13.365Z,76.12
2022-11-24T09:20:43.365Z,75.43
2022-11-24T09:23:12.116Z,75.47
2022-11-24T09:25:40.831Z,75.74
2022-11-24T09:28:09.420Z,75.76
2022-11-24T09:30:38.265Z,75.54
2022-11-24T09:33:06.955Z,75.68
2022-11-24T09:35:39.508Z,75.48
2022-11-24T09:38:10.384Z,75.74
2022-11-24T09:40:39.518Z,75.69
2022-11-24T09:43:20.522Z,75.45
2022-11-24T09:46:06.799Z,75.62
2022-11-24T09:48:40.792Z,75.72
2022-11-24T09:51:15.080Z,76.10
2022-11-24T09:53:54.624Z,76.44
2022-11-24T09:56:28.898Z,76.27
2022-11-24T09:59:04.356Z,76.32
2022-11-24T10:01:37.029Z,76.31
2022-11-24T10:04:16.287Z,76.22
2022-11-24T10:06:57.305Z,75.80
2022-11-24T10:09:47.197Z,75.12
2022-11-24T10:12:40.085Z,75.61
2022-11-24T10:15:28.197Z,75.78
2022-11-24T10:18:30.291Z,76.13
2022-11-24T10:21:20.339Z,76.25
2022-11-24T10:24:22.487Z,75.97
2022-11-24T10:27:19.394Z,75.74
2022-11-24T10:30:06.429Z,75.18
2022-11-24T10:32:42.426Z,75.72
2022-11-24T10:35:20.976Z,75.35
2022-11-24T10:38:01.850Z,75.94
2022-11-24T10:40:56.612Z,76.42
2022-11-24T10:43:29.753Z,76.00
2022-11-24T10:46:13.901Z,75.85
2022-11-24T10:48:49.248Z,76.05
2022-11-24T10:51:51.751Z,76.11
2022-11-24T10:54:24.976Z,76.39
2022-11-24T10:56:56.601Z,76.62
2022-11-24T10:59:57.746Z,76.43
2022-11-24T11:02:38.688Z,76.30
2022-11-24T11:05:44.180Z,75.48
2022-11-24T11:08:42.832Z,75.49
2022-11-24T11:11:21.877Z,75.93
2022-11-24T11:14:03.065Z,75.84
2022-11-24T11:16:57.640Z,76.23
2022-11-24T11:19:49.730Z,76.35
2022-11-24T11:22:34.102Z,76.38
2022-11-24T11:25:19.409Z,76.28
2022-11-24T11:27:49.796Z,76.53
2022-11-24T11:36:18.410Z,76.44
2022-11-24T11:38:49.497Z,76.64
2022-11-24T11:41:25.600Z,76.51
2022-11-24T11:44:11.566Z,76.55
2022-11-24T11:46:43.051Z,76.39
2022-11-24T11:49:14.833Z,76.80
2022-11-24T11:52:08.312Z,76.73
2022-11-24T11:54:58.082Z,76.49
2022-11-24T11:57:39.574Z,76.01
2022-11-24T12:00:20.303Z,76.19
2022-11-24T12:03:24.327Z,76.57
2022-11-24T12:06:10.902Z,76.64
2022-11-24T12:09:19.221Z,76.44
2022-11-24T12:11:54.512Z,76.70
2022-11-24T12:14:41.919Z,76.54
2022-11-24T12:17:25.726Z,76.66
2022-11-24T12:20:20.317Z,76.60
2022-11-24T12:23:25.171Z,76.09
2022-11-24T12:26:05.680Z,75.95
2022-11-24T12:29:06.936Z,76.46
2022-11-24T12:31:48.167Z,76.86
2022-11-24T12:34:45.203Z,77.29
2022-11-24T12:37:37.746Z,77.47
2022-11-24T12:40:25.155Z,77.50
2022-11-24T12:43:09.223Z,77.26
2022-11-24T12:45:47.250Z,77.65
2022-11-24T12:48:33.238Z,77.79
2022-11-24T12:51:07.164Z,77.99
2022-11-24T12:53:39.547Z,77.95
2022-11-24T12:56:15.990Z,78.30
2022-11-24T12:58:53.860Z,78.01
2022-11-24T13:01:37.128Z,78.08
2022-11-24T13:04:17.949Z,78.28
2022-11-24T13:06:55.767Z,78.20
2022-11-24T13:09:30.334Z,78.13
2022-11-24T13:12:14.118Z,78.53
2022-11-24T13:14:47.920Z,78.55
2022-11-24T13:17:41.974Z,78.47
2022-11-24T13:20:28.098Z,78.34
2022-11-24T13:23:00.201Z,78.70
2022-11-24T13:25:32.147Z,78.74
2022-11-24T13:29:08.940Z,78.86
2022-11-24T13:31:47.152Z,78.98
2022-11-24T13:34:55.849Z,79.04
2022-11-24T13:37:52.839Z,79.24
2022-11-24T13:40:59.908Z,79.03
2022-11-24T13:43:36.914Z,79.29
2022-11-24T13:46:06.439Z,79.35
2022-11-24T13:49:00.343Z,79.34
2022-11-24T13:51:29.682Z,79.16
2022-11-24T13:54:01.240Z,79.27
2022-11-24T13:56:32.953Z,79.25
2022-11-24T13:59:19.407Z,79.46
2022-11-24T14:01:59.084Z,79.34
2022-11-24T14:04:31.399Z,79.49
2022-11-24T14:07:09.111Z,79.69
2022-11-24T14:09:46.827Z,79.63
2022-11-24T14:12:23.451Z,79.89
2022-11-24T14:14:56.797Z,79.91
2022-11-24T14:17:28.558Z,79.66
2022-11-24T14:19:59.542Z,79.94
2022-11-24T14:22:37.936Z,79.73
2022-11-24T14:25:20.446Z,79.93
2022-11-24T14:27:49.075Z,80.20
2022-11-24T14:30:23.538Z,80.12
2022-11-24T14:32:57.661Z,80.11
2022-11-24T14:35:30.814Z,79.87
2022-11-24T14:38:00.308Z,80.17
2022-11-24T14:40:42.057Z,80.30
2022-11-24T14:43:31.485Z,80.49
2022-11-24T14:46:12.287Z,80.18
2022-11-24T14:48:50.256Z,80.29
2022-11-24T14:51:26.082Z,80.47
2022-11-24T14:54:00.244Z,80.31
2022-11-24T14:56:33.236Z,80.42
2022-11-24T14:59:02.086Z,80.34
2022-11-24T15:01:36.286Z,80.36
2022-11-24T15:04:54.578Z,80.58
2022-11-24T15:07:27.144Z,80.56
2022-11-24T15:09:58.886Z,80.52
2022-11-24T15:12:35.519Z,80.65
2022-11-24T15:15:07.847Z,80.58
2022-11-24T15:17:38.470Z,80.79
2022-11-24T15:20:18.179Z,81.01
2022-11-24T15:22:52.325Z,81.07
2022-11-24T15:25:31.288Z,80.90
2022-11-24T15:28:00.456Z,80.85
2022-11-24T15:30:29.635Z,80.74
2022-11-24T15:33:00.927Z,80.75
2022-11-24T15:35:33.756Z,80.81
2022-11-24T15:38:02.432Z,80.97
2022-11-24T15:40:32.330Z,80.98
2022-11-24T15:43:06.291Z,80.90
2022-11-24T15:45:35.914Z,81.20
2022-11-24T15:48:06.359Z,81.41
2022-11-24T15:50:37.151Z,81.27
2022-11-24T15:53:06.956Z,81.30
2022-11-24T15:55:36.767Z,81.19
2022-11-24T15:58:14.635Z,81.56
2022-11-24T16:00:45.247Z,81.62
2022-11-24T16:03:45.817Z,81.87
2022-11-24T16:06:16.749Z,81.92
2022-11-24T16:08:50.368Z,82.14
2022-11-24T16:11:19.078Z,82.50
2022-11-24T16:13:52.539Z,82.55
2022-11-24T16:16:24.861Z,82.69
2022-11-24T16:18:55.048Z,82.82
2022-11-24T16:21:23.647Z,82.66
2022-11-24T16:23:52.468Z,82.78
2022-11-24T16:26:21.049Z,82.85
2022-11-24T16:28:49.632Z,82.94
2022-11-24T16:31:19.851Z,82.86
2022-11-24T16:33:48.664Z,82.85
2022-11-24T16:36:18.657Z,82.60
2022-11-24T16:38:47.256Z,82.59
2022-11-24T16:41:16.199Z,82.67
2022-11-24T16:43:44.904Z,82.60
2022-11-24T16:46:22.676Z,82.63
2022-11-24T16:48:53.795Z,82.60
2022-11-24T16:51:28.717Z,82.59
2022-11-24T16:54:02.046Z,82.40
2022-11-24T16:56:32.080Z,82.45
2022-11-24T16:59:00.748Z,82.60
2022-11-24T17:01:29.910Z,82.53
2022-11-24T17:03:58.594Z,82.51
2022-11-24T17:06:30.049Z,82.59
2022-11-24T17:08:58.670Z,82.49
2022-11-24T17:11:29.476Z,82.55
2022-11-24T17:13:59.188Z,82.61
2022-11-24T17:16:28.888Z,82.52
2022-11-24T17:18:58.837Z,82.32
2022-11-24T17:21:30.047Z,82.47
2022-11-24T17:24:01.607Z,82.70
2022-11-24T17:26:30.462Z,82.82
2022-11-24T17:28:59.217Z,82.76
2022-11-24T17:31:32.094Z,82.86
2022-11-24T17:34:02.682Z,82.90
2022-11-24T17:36:35.867Z,82.88
2022-11-24T17:39:07.219Z,83.05
2022-11-24T17:41:35.924Z,83.01
2022-11-24T17:44:06.292Z,83.01
2022-11-24T17:46:37.824Z,82.90
2022-11-24T17:49:08.507Z,83.02
2022-11-24T17:51:38.752Z,82.86
2022-11-24T17:54:31.151Z,82.78
2022-11-24T17:56:56.393Z,82.84
2022-11-24T17:59:25.113Z,83.02
2022-11-24T18:01:54.125Z,83.17
2022-11-24T18:04:23.741Z,83.01
2022-11-24T18:06:54.014Z,82.98
2022-11-24T18:09:22.962Z,82.98
2022-11-24T18:11:52.182Z,83.21
2022-11-24T18:14:21.550Z,83.32
2022-11-24T18:16:50.326Z,83.24
2022-11-24T18:19:18.985Z,83.29
2022-11-24T18:21:47.816Z,83.18
2022-11-24T18:24:23.767Z,83.26
2022-11-24T18:26:52.919Z,83.29
2022-11-24T18:29:22.016Z,83.49
2022-11-24T18:31:50.732Z,83.33
2022-11-24T18:34:19.708Z,83.38
2022-11-24T18:36:52.183Z,83.17
2022-11-24T18:39:22.267Z,82.81
2022-11-24T18:41:51.167Z,82.79
2022-11-24T18:44:19.912Z,82.82
2022-11-24T18:46:53.837Z,82.85
2022-11-24T18:49:23.649Z,83.00
2022-11-24T18:51:52.749Z,83.10
2022-11-24T18:54:22.729Z,83.29
2022-11-24T18:56:51.965Z,83.00
2022-11-24T18:59:20.640Z,83.00
2022-11-24T19:01:49.403Z,83.01
2022-11-24T19:04:18.377Z,83.05
2022-11-24T19:06:47.041Z,83.01
2022-11-24T19:09:21.062Z,82.87
2022-11-24T19:11:51.087Z,82.77
2022-11-24T19:14:20.707Z,82.72
2022-11-24T19:16:49.406Z,82.74
2022-11-24T19:19:18.253Z,82.74
2022-11-24T19:21:46.972Z,82.56
2022-11-24T19:24:15.922Z,82.55
2022-11-24T19:26:44.696Z,82.58
2022-11-24T19:29:23.683Z,82.73
2022-11-24T19:31:54.993Z,82.69
2022-11-24T19:34:23.763Z,82.91
2022-11-24T19:36:52.615Z,82.86
2022-11-24T19:39:21.628Z,82.87
2022-11-24T19:41:50.478Z,82.80
2022-11-24T19:44:19.627Z,82.90
2022-11-24T19:46:49.743Z,82.79
2022-11-24T19:49:18.465Z,82.67
2022-11-24T19:51:48.998Z,82.64
2022-11-24T19:54:18.165Z,82.63
2022-11-24T19:56:46.865Z,82.60
2022-11-24T19:59:18.699Z,82.57
2022-11-24T20:01:49.964Z,82.80
2022-11-24T20:04:20.520Z,82.83
2022-11-24T20:06:50.300Z,83.29
2022-11-24T20:09:19.705Z,83.51
2022-11-24T20:11:49.351Z,83.57
2022-11-24T20:14:19.404Z,83.64
2022-11-24T20:16:52.788Z,83.69
2022-11-24T20:19:21.825Z,83.68
2022-11-24T20:21:52.581Z,83.62
2022-11-24T20:24:24.815Z,83.51
2022-11-24T20:26:58.251Z,83.29
2022-11-24T20:29:28.997Z,83.17
2022-11-24T20:31:59.191Z,83.14
2022-11-24T20:34:30.552Z,83.22
2022-11-24T20:36:59.276Z,83.36
2022-11-24T20:39:29.258Z,83.33
2022-11-24T20:41:58.221Z,83.51
2022-11-24T20:44:28.196Z,83.69
2022-11-24T20:47:00.419Z,83.57
2022-11-24T20:49:29.622Z,83.34
2022-11-24T20:51:58.591Z,83.42
2022-11-24T20:54:29.018Z,83.45
2022-11-24T20:56:59.671Z,83.48
2022-11-24T20:59:28.668Z,83.37
2022-11-24T21:01:59.765Z,83.08
2022-11-24T21:04:31.228Z,82.98
2022-11-24T21:07:00.178Z,83.00
2022-11-24T21:09:29.041Z,83.07
2022-11-24T21:11:57.755Z,83.17
2022-11-24T21:14:30.129Z,83.38
2022-11-24T21:17:04.216Z,83.45
2022-11-24T21:19:33.480Z,83.34
2022-11-24T21:22:04.051Z,83.34
2022-11-24T21:24:38.175Z,83.39
2022-11-24T21:27:07.228Z,83.38
2022-11-24T21:29:36.761Z,83.35
2022-11-24T21:32:07.714Z,83.30
2022-11-24T21:34:37.249Z,83.47
2022-11-24T21:37:16.188Z,83.69
2022-11-24T21:39:48.535Z,83.70
2022-11-24T21:42:21.400Z,83.57
2022-11-24T21:44:51.144Z,83.51
2022-11-24T21:47:21.431Z,83.51
2022-11-24T21:49:50.404Z,83.69
2022-11-24T21:52:23.055Z,83.68
2022-11-24T21:54:51.682Z,83.64
2022-11-24T21:57:20.806Z,83.55
2022-11-24T21:59:50.782Z,83.57
2022-11-24T22:02:25.821Z,83.44
2022-11-24T22:04:56.661Z,83.29
2022-11-24T22:07:25.638Z,83.39
2022-11-24T22:09:55.946Z,83.19
2022-11-24T22:12:25.839Z,83.14
2022-11-24T22:14:54.502Z,83.05
2022-11-24T22:17:24.880Z,83.09
2022-11-24T22:19:53.804Z,83.28
2022-11-24T22:22:22.410Z,83.17
2022-11-24T22:24:51.368Z,83.15
2022-11-24T22:27:19.970Z,83.22
2022-11-24T22:29:52.821Z,83.25
2022-11-24T22:32:24.306Z,83.23
2022-11-24T22:34:56.901Z,83.45
2022-11-24T22:37:26.612Z,83.33
2022-11-24T22:39:55.335Z,83.36
2022-11-24T22:42:24.112Z,83.51
2022-11-24T22:44:52.990Z,83.57
2022-11-24T22:47:21.635Z,83.54
2022-11-24T22:49:52.684Z,83.63
2022-11-24T22:52:21.298Z,83.79
2022-11-24T22:54:49.928Z,83.63
2022-11-24T22:57:18.504Z,83.30
2022-11-24T22:59:47.150Z,83.35
2022-11-24T23:02:15.795Z,83.45
2022-11-24T23:04:44.506Z,83.34
2022-11-24T23:07:15.249Z,83.27
2022-11-24T23:09:43.913Z,83.13
2022-11-24T23:12:12.690Z,82.97
2022-11-24T23:14:42.854Z,82.85
2022-11-24T23:17:30.648Z,82.72
2022-11-24T23:19:59.601Z,82.72
2022-11-24T23:22:29.735Z,82.72
2022-11-24T23:25:05.631Z,82.65
2022-11-24T23:27:41.489Z,82.60
2022-11-24T23:30:18.216Z,82.32
2022-11-24T23:32:51.236Z,82.44
2022-11-24T23:35:21.473Z,82.48
2022-11-24T23:38:07.159Z,82.39
2022-11-24T23:40:42.896Z,82.41
2022-11-24T23:43:13.190Z,82.45
2022-11-24T23:45:44.838Z,82.45
2022-11-24T23:48:13.587Z,82.34
2022-11-24T23:50:44.844Z,82.21
2022-11-24T23:53:14.898Z,82.33
2022-11-24T23:55:45.509Z,82.38
2022-11-24T23:58:14.321Z,82.33
